sensor_id;sensor_type;location;lat;lon;timestamp;P1;durP1;ratioP1;P2;durP2;ratioP2
8349;SDS011;60699;48.946;8.412;2023-03-20T00:01:15;2.25;;;1.40;;
8349;SDS011;60699;48.946;8.412;2023-03-20T00:03:42;1.17;;;1.10;;
8349;SDS011;60699;48.946;8.412;2023-03-20T00:06:14;1.45;;;1.35;;
8349;SDS011;60699;48.946;8.412;2023-03-20T00:08:41;1.75;;;1.65;;
8349;SDS011;60699;48.946;8.412;2023-03-20T00:11:14;1.40;;;1.30;;
8349;SDS011;60699;48.946;8.412;2023-03-20T00:13:49;1.40;;;1.30;;
8349;SDS011;60699;48.946;8.412;2023-03-20T00:16:16;1.55;;;1.45;;
8349;SDS011;60699;48.946;8.412;2023-03-20T00:18:43;1.50;;;1.40;;
8349;SDS011;60699;48.946;8.412;2023-03-20T00:21:11;2.03;;;1.92;;
8349;SDS011;60699;48.946;8.412;2023-03-20T00:23:42;1.38;;;1.27;;
8349;SDS011;60699;48.946;8.412;2023-03-20T00:26:10;1.65;;;1.55;;
8349;SDS011;60699;48.946;8.412;2023-03-20T00:28:38;1.20;;;1.10;;
8349;SDS011;60699;48.946;8.412;2023-03-20T00:31:12;1.42;;;1.33;;
8349;SDS011;60699;48.946;8.412;2023-03-20T00:33:40;1.50;;;1.40;;
8349;SDS011;60699;48.946;8.412;2023-03-20T00:36:07;1.60;;;1.50;;
8349;SDS011;60699;48.946;8.412;2023-03-20T00:38:34;1.40;;;1.30;;
8349;SDS011;60699;48.946;8.412;2023-03-20T00:41:01;2.20;;;1.40;;
8349;SDS011;60699;48.946;8.412;2023-03-20T00:43:29;1.33;;;1.23;;
8349;SDS011;60699;48.946;8.412;2023-03-20T00:45:56;2.08;;;1.40;;
8349;SDS011;60699;48.946;8.412;2023-03-20T00:48:24;2.88;;;1.52;;
8349;SDS011;60699;48.946;8.412;2023-03-20T00:50:51;1.33;;;1.23;;
8349;SDS011;60699;48.946;8.412;2023-03-20T00:53:18;1.70;;;1.60;;
8349;SDS011;60699;48.946;8.412;2023-03-20T00:55:45;1.88;;;1.77;;
8349;SDS011;60699;48.946;8.412;2023-03-20T00:58:12;1.77;;;1.67;;
8349;SDS011;60699;48.946;8.412;2023-03-20T01:00:40;1.83;;;1.73;;
8349;SDS011;60699;48.946;8.412;2023-03-20T01:03:11;2.65;;;1.85;;
8349;SDS011;60699;48.946;8.412;2023-03-20T01:05:41;3.05;;;1.60;;
8349;SDS011;60699;48.946;8.412;2023-03-20T01:08:10;2.17;;;1.70;;
8349;SDS011;60699;48.946;8.412;2023-03-20T01:10:38;2.35;;;1.65;;
8349;SDS011;60699;48.946;8.412;2023-03-20T01:13:05;1.90;;;1.80;;
8349;SDS011;60699;48.946;8.412;2023-03-20T01:15:32;1.80;;;1.70;;
8349;SDS011;60699;48.946;8.412;2023-03-20T01:18:00;2.17;;;1.92;;
8349;SDS011;60699;48.946;8.412;2023-03-20T01:20:28;1.65;;;1.55;;
8349;SDS011;60699;48.946;8.412;2023-03-20T01:22:57;1.95;;;1.85;;
8349;SDS011;60699;48.946;8.412;2023-03-20T01:25:24;1.63;;;1.52;;
8349;SDS011;60699;48.946;8.412;2023-03-20T01:27:52;1.63;;;1.52;;
8349;SDS011;60699;48.946;8.412;2023-03-20T01:30:23;1.55;;;1.30;;
8349;SDS011;60699;48.946;8.412;2023-03-20T01:32:50;1.77;;;1.63;;
8349;SDS011;60699;48.946;8.412;2023-03-20T01:35:19;1.63;;;1.52;;
8349;SDS011;60699;48.946;8.412;2023-03-20T01:37:46;1.55;;;1.45;;
8349;SDS011;60699;48.946;8.412;2023-03-20T01:40:21;1.48;;;1.38;;
8349;SDS011;60699;48.946;8.412;2023-03-20T01:42:52;2.72;;;1.50;;
8349;SDS011;60699;48.946;8.412;2023-03-20T01:45:21;1.48;;;1.38;;
8349;SDS011;60699;48.946;8.412;2023-03-20T01:47:48;1.83;;;1.73;;
8349;SDS011;60699;48.946;8.412;2023-03-20T01:50:23;1.85;;;1.70;;
8349;SDS011;60699;48.946;8.412;2023-03-20T01:52:52;5.10;;;1.80;;
8349;SDS011;60699;48.946;8.412;2023-03-20T01:55:21;1.85;;;1.75;;
8349;SDS011;60699;48.946;8.412;2023-03-20T01:57:49;1.60;;;1.50;;
8349;SDS011;60699;48.946;8.412;2023-03-20T02:00:17;1.92;;;1.80;;
8349;SDS011;60699;48.946;8.412;2023-03-20T02:02:45;2.17;;;1.60;;
8349;SDS011;60699;48.946;8.412;2023-03-20T02:05:13;1.77;;;1.67;;
8349;SDS011;60699;48.946;8.412;2023-03-20T02:07:41;2.15;;;1.95;;
8349;SDS011;60699;48.946;8.412;2023-03-20T02:10:12;2.00;;;1.90;;
8349;SDS011;60699;48.946;8.412;2023-03-20T02:12:41;2.10;;;1.90;;
8349;SDS011;60699;48.946;8.412;2023-03-20T02:15:09;2.25;;;2.05;;
8349;SDS011;60699;48.946;8.412;2023-03-20T02:17:37;1.90;;;1.80;;
8349;SDS011;60699;48.946;8.412;2023-03-20T02:20:06;2.20;;;2.10;;
8349;SDS011;60699;48.946;8.412;2023-03-20T02:25:26;1.98;;;1.80;;
8349;SDS011;60699;48.946;8.412;2023-03-20T02:28:19;2.20;;;2.10;;
8349;SDS011;60699;48.946;8.412;2023-03-20T02:30:59;2.17;;;2.05;;
8349;SDS011;60699;48.946;8.412;2023-03-20T02:33:43;3.20;;;2.50;;
8349;SDS011;60699;48.946;8.412;2023-03-20T02:39:10;2.22;;;2.05;;
8349;SDS011;60699;48.946;8.412;2023-03-20T02:41:42;2.35;;;2.13;;
8349;SDS011;60699;48.946;8.412;2023-03-20T02:44:14;2.22;;;2.10;;
8349;SDS011;60699;48.946;8.412;2023-03-20T02:46:45;2.28;;;2.08;;
8349;SDS011;60699;48.946;8.412;2023-03-20T02:49:17;2.80;;;2.60;;
8349;SDS011;60699;48.946;8.412;2023-03-20T02:51:47;2.88;;;2.35;;
8349;SDS011;60699;48.946;8.412;2023-03-20T02:54:19;2.60;;;2.40;;
8349;SDS011;60699;48.946;8.412;2023-03-20T02:56:49;2.97;;;2.67;;
8349;SDS011;60699;48.946;8.412;2023-03-20T02:59:20;3.15;;;2.85;;
8349;SDS011;60699;48.946;8.412;2023-03-20T03:01:50;6.65;;;2.67;;
8349;SDS011;60699;48.946;8.412;2023-03-20T03:04:19;2.72;;;2.53;;
8349;SDS011;60699;48.946;8.412;2023-03-20T03:06:48;3.33;;;3.10;;
8349;SDS011;60699;48.946;8.412;2023-03-20T03:09:17;3.30;;;3.00;;
8349;SDS011;60699;48.946;8.412;2023-03-20T03:11:48;3.78;;;3.38;;
8349;SDS011;60699;48.946;8.412;2023-03-20T03:14:17;3.63;;;3.33;;
8349;SDS011;60699;48.946;8.412;2023-03-20T03:16:45;4.00;;;2.85;;
8349;SDS011;60699;48.946;8.412;2023-03-20T03:19:15;3.22;;;2.92;;
8349;SDS011;60699;48.946;8.412;2023-03-20T03:21:44;3.90;;;3.50;;
8349;SDS011;60699;48.946;8.412;2023-03-20T03:24:20;5.88;;;4.40;;
8349;SDS011;60699;48.946;8.412;2023-03-20T03:26:52;4.18;;;3.80;;
8349;SDS011;60699;48.946;8.412;2023-03-20T03:29:20;4.85;;;3.65;;
8349;SDS011;60699;48.946;8.412;2023-03-20T03:31:48;4.15;;;3.85;;
8349;SDS011;60699;48.946;8.412;2023-03-20T03:34:16;3.45;;;3.20;;
8349;SDS011;60699;48.946;8.412;2023-03-20T03:36:45;5.35;;;3.40;;
8349;SDS011;60699;48.946;8.412;2023-03-20T03:39:16;2.58;;;2.30;;
8349;SDS011;60699;48.946;8.412;2023-03-20T03:41:47;3.60;;;3.30;;
8349;SDS011;60699;48.946;8.412;2023-03-20T03:44:18;3.53;;;3.25;;
8349;SDS011;60699;48.946;8.412;2023-03-20T03:46:47;3.90;;;3.45;;
8349;SDS011;60699;48.946;8.412;2023-03-20T03:49:17;3.60;;;3.30;;
8349;SDS011;60699;48.946;8.412;2023-03-20T03:51:47;4.55;;;3.55;;
8349;SDS011;60699;48.946;8.412;2023-03-20T03:54:15;3.92;;;3.63;;
8349;SDS011;60699;48.946;8.412;2023-03-20T03:56:43;4.25;;;3.80;;
8349;SDS011;60699;48.946;8.412;2023-03-20T03:59:16;5.55;;;4.22;;
8349;SDS011;60699;48.946;8.412;2023-03-20T04:01:45;4.78;;;4.13;;
8349;SDS011;60699;48.946;8.412;2023-03-20T04:04:13;4.28;;;3.88;;
8349;SDS011;60699;48.946;8.412;2023-03-20T04:06:41;5.30;;;4.80;;
8349;SDS011;60699;48.946;8.412;2023-03-20T04:09:08;3.95;;;3.55;;
8349;SDS011;60699;48.946;8.412;2023-03-20T04:11:35;4.05;;;3.70;;
8349;SDS011;60699;48.946;8.412;2023-03-20T04:14:02;4.07;;;3.55;;
8349;SDS011;60699;48.946;8.412;2023-03-20T04:16:30;5.00;;;4.15;;
8349;SDS011;60699;48.946;8.412;2023-03-20T04:18:58;7.95;;;4.93;;
8349;SDS011;60699;48.946;8.412;2023-03-20T04:21:25;6.28;;;4.45;;
8349;SDS011;60699;48.946;8.412;2023-03-20T04:23:52;5.45;;;4.57;;
8349;SDS011;60699;48.946;8.412;2023-03-20T04:26:19;8.23;;;5.45;;
8349;SDS011;60699;48.946;8.412;2023-03-20T04:28:47;6.45;;;4.85;;
8349;SDS011;60699;48.946;8.412;2023-03-20T04:31:14;8.18;;;4.88;;
8349;SDS011;60699;48.946;8.412;2023-03-20T04:33:42;8.55;;;6.00;;
8349;SDS011;60699;48.946;8.412;2023-03-20T04:36:10;10.77;;;6.53;;
8349;SDS011;60699;48.946;8.412;2023-03-20T04:38:38;9.68;;;6.00;;
8349;SDS011;60699;48.946;8.412;2023-03-20T04:41:05;6.50;;;5.85;;
8349;SDS011;60699;48.946;8.412;2023-03-20T04:43:33;6.13;;;5.35;;
8349;SDS011;60699;48.946;8.412;2023-03-20T04:46:00;8.93;;;6.07;;
8349;SDS011;60699;48.946;8.412;2023-03-20T04:48:27;8.05;;;5.85;;
8349;SDS011;60699;48.946;8.412;2023-03-20T04:50:54;6.30;;;4.97;;
8349;SDS011;60699;48.946;8.412;2023-03-20T04:53:22;7.38;;;6.10;;
8349;SDS011;60699;48.946;8.412;2023-03-20T04:55:50;7.82;;;6.00;;
8349;SDS011;60699;48.946;8.412;2023-03-20T04:58:17;8.07;;;5.68;;
8349;SDS011;60699;48.946;8.412;2023-03-20T05:00:44;7.80;;;5.95;;
8349;SDS011;60699;48.946;8.412;2023-03-20T05:03:11;7.82;;;5.93;;
8349;SDS011;60699;48.946;8.412;2023-03-20T05:05:38;9.45;;;6.32;;
8349;SDS011;60699;48.946;8.412;2023-03-20T05:08:05;6.80;;;6.10;;
8349;SDS011;60699;48.946;8.412;2023-03-20T05:10:33;7.93;;;6.30;;
8349;SDS011;60699;48.946;8.412;2023-03-20T05:13:00;9.70;;;6.95;;
8349;SDS011;60699;48.946;8.412;2023-03-20T05:15:27;8.00;;;7.07;;
8349;SDS011;60699;48.946;8.412;2023-03-20T05:17:54;12.13;;;7.63;;
8349;SDS011;60699;48.946;8.412;2023-03-20T05:20:21;9.98;;;7.00;;
8349;SDS011;60699;48.946;8.412;2023-03-20T05:22:49;10.30;;;7.20;;
8349;SDS011;60699;48.946;8.412;2023-03-20T05:25:16;13.10;;;8.02;;
8349;SDS011;60699;48.946;8.412;2023-03-20T05:27:45;11.93;;;7.47;;
8349;SDS011;60699;48.946;8.412;2023-03-20T05:30:12;12.30;;;6.35;;
8349;SDS011;60699;48.946;8.412;2023-03-20T05:32:39;11.68;;;7.35;;
8349;SDS011;60699;48.946;8.412;2023-03-20T05:35:07;9.82;;;7.07;;
8349;SDS011;60699;48.946;8.412;2023-03-20T05:37:34;11.65;;;7.05;;
8349;SDS011;60699;48.946;8.412;2023-03-20T05:40:02;10.07;;;7.07;;
8349;SDS011;60699;48.946;8.412;2023-03-20T05:42:29;10.40;;;7.78;;
8349;SDS011;60699;48.946;8.412;2023-03-20T05:44:57;11.70;;;8.32;;
8349;SDS011;60699;48.946;8.412;2023-03-20T05:47:24;8.85;;;6.63;;
8349;SDS011;60699;48.946;8.412;2023-03-20T05:49:51;11.25;;;7.53;;
8349;SDS011;60699;48.946;8.412;2023-03-20T05:52:18;9.20;;;8.25;;
8349;SDS011;60699;48.946;8.412;2023-03-20T05:54:45;11.75;;;6.40;;
8349;SDS011;60699;48.946;8.412;2023-03-20T05:57:12;11.10;;;7.93;;
8349;SDS011;60699;48.946;8.412;2023-03-20T05:59:39;11.02;;;7.47;;
8349;SDS011;60699;48.946;8.412;2023-03-20T06:02:08;12.63;;;7.40;;
8349;SDS011;60699;48.946;8.412;2023-03-20T06:04:35;10.40;;;8.13;;
8349;SDS011;60699;48.946;8.412;2023-03-20T06:07:02;8.32;;;6.40;;
8349;SDS011;60699;48.946;8.412;2023-03-20T06:09:30;10.73;;;7.47;;
8349;SDS011;60699;48.946;8.412;2023-03-20T06:11:57;12.82;;;7.15;;
8349;SDS011;60699;48.946;8.412;2023-03-20T06:14:24;11.25;;;6.97;;
8349;SDS011;60699;48.946;8.412;2023-03-20T06:16:51;8.32;;;6.78;;
8349;SDS011;60699;48.946;8.412;2023-03-20T06:19:20;12.98;;;6.95;;
8349;SDS011;60699;48.946;8.412;2023-03-20T06:21:47;13.88;;;7.70;;
8349;SDS011;60699;48.946;8.412;2023-03-20T06:24:14;14.40;;;8.05;;
8349;SDS011;60699;48.946;8.412;2023-03-20T06:26:41;9.38;;;6.55;;
8349;SDS011;60699;48.946;8.412;2023-03-20T06:29:08;11.95;;;8.20;;
8349;SDS011;60699;48.946;8.412;2023-03-20T06:31:35;9.48;;;7.13;;
8349;SDS011;60699;48.946;8.412;2023-03-20T06:34:02;11.02;;;6.95;;
8349;SDS011;60699;48.946;8.412;2023-03-20T06:36:31;10.15;;;7.47;;
8349;SDS011;60699;48.946;8.412;2023-03-20T06:38:58;15.23;;;8.25;;
8349;SDS011;60699;48.946;8.412;2023-03-20T06:41:26;9.32;;;5.95;;
8349;SDS011;60699;48.946;8.412;2023-03-20T06:43:53;11.35;;;6.57;;
8349;SDS011;60699;48.946;8.412;2023-03-20T06:46:20;11.35;;;6.28;;
8349;SDS011;60699;48.946;8.412;2023-03-20T06:48:47;11.27;;;7.55;;
8349;SDS011;60699;48.946;8.412;2023-03-20T06:51:14;8.50;;;5.85;;
8349;SDS011;60699;48.946;8.412;2023-03-20T06:53:43;7.85;;;5.60;;
8349;SDS011;60699;48.946;8.412;2023-03-20T06:56:10;9.23;;;6.40;;
8349;SDS011;60699;48.946;8.412;2023-03-20T06:58:37;10.40;;;6.95;;
8349;SDS011;60699;48.946;8.412;2023-03-20T07:01:07;12.30;;;6.95;;
8349;SDS011;60699;48.946;8.412;2023-03-20T07:03:34;6.65;;;5.40;;
8349;SDS011;60699;48.946;8.412;2023-03-20T07:06:01;14.02;;;8.65;;
8349;SDS011;60699;48.946;8.412;2023-03-20T07:08:28;13.82;;;7.63;;
8349;SDS011;60699;48.946;8.412;2023-03-20T07:10:57;7.50;;;5.82;;
8349;SDS011;60699;48.946;8.412;2023-03-20T07:13:24;12.75;;;9.40;;
8349;SDS011;60699;48.946;8.412;2023-03-20T07:15:52;10.55;;;6.38;;
8349;SDS011;60699;48.946;8.412;2023-03-20T07:18:19;12.73;;;7.72;;
8349;SDS011;60699;48.946;8.412;2023-03-20T07:20:46;10.68;;;7.18;;
8349;SDS011;60699;48.946;8.412;2023-03-20T07:23:13;9.23;;;6.35;;
8349;SDS011;60699;48.946;8.412;2023-03-20T07:25:40;15.90;;;7.60;;
8349;SDS011;60699;48.946;8.412;2023-03-20T07:28:09;10.73;;;6.60;;
8349;SDS011;60699;48.946;8.412;2023-03-20T07:30:36;9.35;;;6.68;;
8349;SDS011;60699;48.946;8.412;2023-03-20T07:33:03;8.63;;;6.57;;
8349;SDS011;60699;48.946;8.412;2023-03-20T07:35:30;11.27;;;7.20;;
8349;SDS011;60699;48.946;8.412;2023-03-20T07:37:57;14.23;;;8.20;;
8349;SDS011;60699;48.946;8.412;2023-03-20T07:40:24;10.55;;;7.20;;
8349;SDS011;60699;48.946;8.412;2023-03-20T07:42:51;12.75;;;7.78;;
8349;SDS011;60699;48.946;8.412;2023-03-20T07:45:19;8.63;;;7.03;;
8349;SDS011;60699;48.946;8.412;2023-03-20T07:47:46;11.50;;;7.20;;
8349;SDS011;60699;48.946;8.412;2023-03-20T07:50:14;11.40;;;7.65;;
8349;SDS011;60699;48.946;8.412;2023-03-20T07:52:44;10.52;;;7.80;;
8349;SDS011;60699;48.946;8.412;2023-03-20T07:55:11;11.43;;;7.55;;
8349;SDS011;60699;48.946;8.412;2023-03-20T07:57:38;11.75;;;6.53;;
8349;SDS011;60699;48.946;8.412;2023-03-20T08:00:06;9.10;;;7.32;;
8349;SDS011;60699;48.946;8.412;2023-03-20T08:02:34;10.65;;;7.30;;
8349;SDS011;60699;48.946;8.412;2023-03-20T08:05:02;12.95;;;7.13;;
8349;SDS011;60699;48.946;8.412;2023-03-20T08:07:30;10.25;;;6.70;;
8349;SDS011;60699;48.946;8.412;2023-03-20T08:09:57;9.82;;;6.05;;
8349;SDS011;60699;48.946;8.412;2023-03-20T08:12:24;9.95;;;6.68;;
8349;SDS011;60699;48.946;8.412;2023-03-20T08:14:51;12.98;;;6.60;;
8349;SDS011;60699;48.946;8.412;2023-03-20T08:17:18;14.98;;;10.25;;
8349;SDS011;60699;48.946;8.412;2023-03-20T08:19:46;12.75;;;8.32;;
8349;SDS011;60699;48.946;8.412;2023-03-20T08:22:13;9.70;;;7.90;;
8349;SDS011;60699;48.946;8.412;2023-03-20T08:24:40;11.93;;;7.00;;
8349;SDS011;60699;48.946;8.412;2023-03-20T08:27:07;8.98;;;6.40;;
8349;SDS011;60699;48.946;8.412;2023-03-20T08:29:34;8.10;;;5.57;;
8349;SDS011;60699;48.946;8.412;2023-03-20T08:32:01;11.98;;;5.63;;
8349;SDS011;60699;48.946;8.412;2023-03-20T08:34:29;6.50;;;5.10;;
8349;SDS011;60699;48.946;8.412;2023-03-20T08:36:58;9.43;;;7.03;;
8349;SDS011;60699;48.946;8.412;2023-03-20T08:39:26;9.30;;;6.03;;
8349;SDS011;60699;48.946;8.412;2023-03-20T08:41:53;9.65;;;6.22;;
8349;SDS011;60699;48.946;8.412;2023-03-20T08:44:20;15.45;;;7.25;;
8349;SDS011;60699;48.946;8.412;2023-03-20T08:46:47;11.95;;;7.05;;
8349;SDS011;60699;48.946;8.412;2023-03-20T08:49:14;13.93;;;7.43;;
8349;SDS011;60699;48.946;8.412;2023-03-20T08:51:41;8.32;;;5.28;;
8349;SDS011;60699;48.946;8.412;2023-03-20T08:54:10;11.55;;;6.43;;
8349;SDS011;60699;48.946;8.412;2023-03-20T08:56:39;9.50;;;6.20;;
8349;SDS011;60699;48.946;8.412;2023-03-20T08:59:06;12.43;;;6.43;;
8349;SDS011;60699;48.946;8.412;2023-03-20T09:01:33;9.70;;;7.53;;
8349;SDS011;60699;48.946;8.412;2023-03-20T09:04:00;11.27;;;6.90;;
8349;SDS011;60699;48.946;8.412;2023-03-20T09:06:27;10.57;;;5.68;;
8349;SDS011;60699;48.946;8.412;2023-03-20T09:08:55;7.45;;;5.50;;
8349;SDS011;60699;48.946;8.412;2023-03-20T09:11:23;8.05;;;5.50;;
8349;SDS011;60699;48.946;8.412;2023-03-20T09:13:50;13.27;;;7.30;;
8349;SDS011;60699;48.946;8.412;2023-03-20T09:16:17;8.55;;;6.15;;
8349;SDS011;60699;48.946;8.412;2023-03-20T09:18:44;9.38;;;5.88;;
8349;SDS011;60699;48.946;8.412;2023-03-20T09:21:11;9.98;;;6.07;;
8349;SDS011;60699;48.946;8.412;2023-03-20T09:23:38;8.40;;;4.95;;
8349;SDS011;60699;48.946;8.412;2023-03-20T09:26:05;8.95;;;5.93;;
8349;SDS011;60699;48.946;8.412;2023-03-20T09:28:34;8.75;;;5.22;;
8349;SDS011;60699;48.946;8.412;2023-03-20T09:31:01;6.93;;;4.88;;
8349;SDS011;60699;48.946;8.412;2023-03-20T09:33:28;8.10;;;4.55;;
8349;SDS011;60699;48.946;8.412;2023-03-20T09:35:55;6.72;;;4.75;;
8349;SDS011;60699;48.946;8.412;2023-03-20T09:38:22;6.30;;;4.80;;
8349;SDS011;60699;48.946;8.412;2023-03-20T09:40:50;7.72;;;5.43;;
8349;SDS011;60699;48.946;8.412;2023-03-20T09:43:20;6.35;;;4.45;;
8349;SDS011;60699;48.946;8.412;2023-03-20T09:45:51;8.25;;;5.30;;
8349;SDS011;60699;48.946;8.412;2023-03-20T09:48:23;7.70;;;4.20;;
8349;SDS011;60699;48.946;8.412;2023-03-20T09:50:54;8.73;;;5.22;;
8349;SDS011;60699;48.946;8.412;2023-03-20T09:53:24;5.88;;;5.05;;
8349;SDS011;60699;48.946;8.412;2023-03-20T09:55:54;7.70;;;4.65;;
8349;SDS011;60699;48.946;8.412;2023-03-20T09:58:22;5.53;;;4.60;;
8349;SDS011;60699;48.946;8.412;2023-03-20T10:00:51;7.25;;;5.05;;
8349;SDS011;60699;48.946;8.412;2023-03-20T10:03:23;5.57;;;4.70;;
8349;SDS011;60699;48.946;8.412;2023-03-20T10:05:53;7.78;;;4.88;;
8349;SDS011;60699;48.946;8.412;2023-03-20T10:08:24;6.85;;;4.45;;
8349;SDS011;60699;48.946;8.412;2023-03-20T10:10:54;8.68;;;6.00;;
8349;SDS011;60699;48.946;8.412;2023-03-20T10:13:27;5.90;;;4.60;;
8349;SDS011;60699;48.946;8.412;2023-03-20T10:15:58;10.23;;;5.97;;
8349;SDS011;60699;48.946;8.412;2023-03-20T10:18:31;5.60;;;4.70;;
8349;SDS011;60699;48.946;8.412;2023-03-20T10:21:00;5.90;;;4.45;;
8349;SDS011;60699;48.946;8.412;2023-03-20T10:23:32;6.43;;;4.38;;
8349;SDS011;60699;48.946;8.412;2023-03-20T10:26:02;8.50;;;4.50;;
8349;SDS011;60699;48.946;8.412;2023-03-20T10:28:33;6.55;;;5.20;;
8349;SDS011;60699;48.946;8.412;2023-03-20T10:31:06;5.80;;;4.07;;
8349;SDS011;60699;48.946;8.412;2023-03-20T10:33:41;7.10;;;4.00;;
8349;SDS011;60699;48.946;8.412;2023-03-20T10:36:14;6.13;;;4.30;;
8349;SDS011;60699;48.946;8.412;2023-03-20T10:38:44;6.43;;;4.60;;
8349;SDS011;60699;48.946;8.412;2023-03-20T10:41:14;5.95;;;4.55;;
8349;SDS011;60699;48.946;8.412;2023-03-20T10:43:42;5.68;;;4.40;;
8349;SDS011;60699;48.946;8.412;2023-03-20T10:46:11;6.28;;;4.25;;
8349;SDS011;60699;48.946;8.412;2023-03-20T10:48:41;5.55;;;3.85;;
8349;SDS011;60699;48.946;8.412;2023-03-20T10:51:11;6.70;;;4.22;;
8349;SDS011;60699;48.946;8.412;2023-03-20T10:53:40;9.15;;;4.05;;
8349;SDS011;60699;48.946;8.412;2023-03-20T10:56:11;6.80;;;3.92;;
8349;SDS011;60699;48.946;8.412;2023-03-20T10:58:39;5.20;;;3.95;;
8349;SDS011;60699;48.946;8.412;2023-03-20T11:01:07;6.43;;;4.13;;
8349;SDS011;60699;48.946;8.412;2023-03-20T11:03:36;8.85;;;4.55;;
8349;SDS011;60699;48.946;8.412;2023-03-20T11:06:06;6.95;;;4.82;;
8349;SDS011;60699;48.946;8.412;2023-03-20T11:08:35;5.60;;;4.38;;
8349;SDS011;60699;48.946;8.412;2023-03-20T11:11:03;5.30;;;4.45;;
8349;SDS011;60699;48.946;8.412;2023-03-20T11:13:31;12.77;;;5.13;;
8349;SDS011;60699;48.946;8.412;2023-03-20T11:18:45;8.93;;;5.10;;
8349;SDS011;60699;48.946;8.412;2023-03-20T11:21:14;6.78;;;5.13;;
8349;SDS011;60699;48.946;8.412;2023-03-20T11:23:42;9.48;;;5.78;;
8349;SDS011;60699;48.946;8.412;2023-03-20T11:26:11;4.55;;;3.50;;
8349;SDS011;60699;48.946;8.412;2023-03-20T11:28:40;5.40;;;4.40;;
8349;SDS011;60699;48.946;8.412;2023-03-20T11:31:14;5.55;;;4.60;;
8349;SDS011;60699;48.946;8.412;2023-03-20T11:33:42;7.95;;;5.30;;
8349;SDS011;60699;48.946;8.412;2023-03-20T11:36:18;6.45;;;3.72;;
8349;SDS011;60699;48.946;8.412;2023-03-20T11:38:46;3.95;;;3.40;;
8349;SDS011;60699;48.946;8.412;2023-03-20T11:41:18;5.18;;;3.97;;
8349;SDS011;60699;48.946;8.412;2023-03-20T11:43:45;4.38;;;3.63;;
8349;SDS011;60699;48.946;8.412;2023-03-20T11:46:12;6.78;;;3.92;;
8349;SDS011;60699;48.946;8.412;2023-03-20T11:48:40;4.80;;;4.05;;
8349;SDS011;60699;48.946;8.412;2023-03-20T11:51:09;5.07;;;3.88;;
8349;SDS011;60699;48.946;8.412;2023-03-20T11:53:38;5.72;;;3.95;;
8349;SDS011;60699;48.946;8.412;2023-03-20T11:56:08;5.10;;;3.80;;
8349;SDS011;60699;48.946;8.412;2023-03-20T11:58:36;5.63;;;3.80;;
8349;SDS011;60699;48.946;8.412;2023-03-20T12:01:06;5.55;;;4.50;;
8349;SDS011;60699;48.946;8.412;2023-03-20T12:03:41;6.88;;;4.57;;
8349;SDS011;60699;48.946;8.412;2023-03-20T12:06:12;5.05;;;4.28;;
8349;SDS011;60699;48.946;8.412;2023-03-20T12:08:42;5.38;;;3.72;;
8349;SDS011;60699;48.946;8.412;2023-03-20T12:11:16;5.97;;;3.72;;
8349;SDS011;60699;48.946;8.412;2023-03-20T12:13:46;4.85;;;4.45;;
8349;SDS011;60699;48.946;8.412;2023-03-20T12:16:15;4.65;;;3.53;;
8349;SDS011;60699;48.946;8.412;2023-03-20T12:18:44;4.82;;;4.32;;
8349;SDS011;60699;48.946;8.412;2023-03-20T12:21:14;5.15;;;4.13;;
8349;SDS011;60699;48.946;8.412;2023-03-20T12:23:44;7.00;;;4.50;;
8349;SDS011;60699;48.946;8.412;2023-03-20T12:26:13;6.40;;;4.20;;
8349;SDS011;60699;48.946;8.412;2023-03-20T12:28:42;5.88;;;4.38;;
8349;SDS011;60699;48.946;8.412;2023-03-20T12:31:15;8.45;;;5.25;;
8349;SDS011;60699;48.946;8.412;2023-03-20T12:33:46;5.82;;;4.28;;
8349;SDS011;60699;48.946;8.412;2023-03-20T12:36:16;6.55;;;4.30;;
8349;SDS011;60699;48.946;8.412;2023-03-20T12:38:45;7.70;;;4.78;;
8349;SDS011;60699;48.946;8.412;2023-03-20T12:41:13;5.45;;;3.72;;
8349;SDS011;60699;48.946;8.412;2023-03-20T12:43:43;8.13;;;4.10;;
8349;SDS011;60699;48.946;8.412;2023-03-20T12:46:16;3.63;;;3.33;;
8349;SDS011;60699;48.946;8.412;2023-03-20T12:48:48;4.97;;;4.07;;
8349;SDS011;60699;48.946;8.412;2023-03-20T12:51:17;4.93;;;3.97;;
8349;SDS011;60699;48.946;8.412;2023-03-20T12:53:52;5.00;;;3.35;;
8349;SDS011;60699;48.946;8.412;2023-03-20T12:56:27;4.10;;;3.67;;
8349;SDS011;60699;48.946;8.412;2023-03-20T12:58:58;5.50;;;4.60;;
8349;SDS011;60699;48.946;8.412;2023-03-20T13:01:28;3.97;;;3.53;;
8349;SDS011;60699;48.946;8.412;2023-03-20T13:04:03;5.70;;;3.72;;
8349;SDS011;60699;48.946;8.412;2023-03-20T13:06:39;3.85;;;3.30;;
8349;SDS011;60699;48.946;8.412;2023-03-20T13:11:54;5.95;;;3.28;;
8349;SDS011;60699;48.946;8.412;2023-03-20T13:14:26;7.15;;;3.80;;
8349;SDS011;60699;48.946;8.412;2023-03-20T13:16:58;5.35;;;2.80;;
8349;SDS011;60699;48.946;8.412;2023-03-20T13:19:29;5.32;;;3.38;;
8349;SDS011;60699;48.946;8.412;2023-03-20T13:22:01;4.18;;;2.97;;
8349;SDS011;60699;48.946;8.412;2023-03-20T13:24:35;2.70;;;2.50;;
8349;SDS011;60699;48.946;8.412;2023-03-20T13:27:09;3.33;;;3.03;;
8349;SDS011;60699;48.946;8.412;2023-03-20T13:29:41;4.25;;;3.80;;
8349;SDS011;60699;48.946;8.412;2023-03-20T13:32:13;2.92;;;2.63;;
8349;SDS011;60699;48.946;8.412;2023-03-20T13:34:46;4.90;;;2.60;;
8349;SDS011;60699;48.946;8.412;2023-03-20T13:37:18;2.83;;;2.50;;
8349;SDS011;60699;48.946;8.412;2023-03-20T13:39:47;3.00;;;2.80;;
8349;SDS011;60699;48.946;8.412;2023-03-20T13:42:17;2.33;;;2.13;;
8349;SDS011;60699;48.946;8.412;2023-03-20T13:44:45;3.15;;;2.85;;
8349;SDS011;60699;48.946;8.412;2023-03-20T13:47:14;3.58;;;3.28;;
8349;SDS011;60699;48.946;8.412;2023-03-20T13:49:45;2.42;;;2.22;;
8349;SDS011;60699;48.946;8.412;2023-03-20T13:52:18;6.20;;;3.08;;
8349;SDS011;60699;48.946;8.412;2023-03-20T13:54:51;3.40;;;3.10;;
8349;SDS011;60699;48.946;8.412;2023-03-20T13:57:40;2.40;;;2.22;;
8349;SDS011;60699;48.946;8.412;2023-03-20T14:00:13;5.53;;;2.22;;
8349;SDS011;60699;48.946;8.412;2023-03-20T14:02:49;4.32;;;2.70;;
8349;SDS011;60699;48.946;8.412;2023-03-20T14:05:18;5.50;;;3.63;;
8349;SDS011;60699;48.946;8.412;2023-03-20T14:07:46;3.30;;;3.00;;
8349;SDS011;60699;48.946;8.412;2023-03-20T14:10:32;3.05;;;2.75;;
8349;SDS011;60699;48.946;8.412;2023-03-20T14:13:02;3.30;;;3.00;;
8349;SDS011;60699;48.946;8.412;2023-03-20T14:15:30;5.25;;;4.15;;
8349;SDS011;60699;48.946;8.412;2023-03-20T14:17:58;6.57;;;3.53;;
8349;SDS011;60699;48.946;8.412;2023-03-20T14:20:31;4.13;;;3.20;;
8349;SDS011;60699;48.946;8.412;2023-03-20T14:22:58;2.80;;;2.40;;
8349;SDS011;60699;48.946;8.412;2023-03-20T14:25:25;3.47;;;2.50;;
8349;SDS011;60699;48.946;8.412;2023-03-20T14:27:55;2.55;;;2.35;;
8349;SDS011;60699;48.946;8.412;2023-03-20T14:33:09;2.97;;;2.50;;
8349;SDS011;60699;48.946;8.412;2023-03-20T14:35:50;3.55;;;2.75;;
8349;SDS011;60699;48.946;8.412;2023-03-20T14:38:19;5.88;;;3.33;;
8349;SDS011;60699;48.946;8.412;2023-03-20T14:40:51;3.72;;;3.05;;
8349;SDS011;60699;48.946;8.412;2023-03-20T14:43:21;3.03;;;2.80;;
8349;SDS011;60699;48.946;8.412;2023-03-20T14:45:52;2.90;;;2.70;;
8349;SDS011;60699;48.946;8.412;2023-03-20T14:48:32;3.90;;;3.53;;
8349;SDS011;60699;48.946;8.412;2023-03-20T14:51:14;3.30;;;3.03;;
8349;SDS011;60699;48.946;8.412;2023-03-20T14:53:43;3.55;;;3.20;;
8349;SDS011;60699;48.946;8.412;2023-03-20T14:56:10;3.53;;;3.15;;
8349;SDS011;60699;48.946;8.412;2023-03-20T14:58:48;4.15;;;2.70;;
8349;SDS011;60699;48.946;8.412;2023-03-20T15:01:23;3.40;;;3.10;;
8349;SDS011;60699;48.946;8.412;2023-03-20T15:03:54;2.63;;;2.42;;
8349;SDS011;60699;48.946;8.412;2023-03-20T15:06:23;3.13;;;2.83;;
8349;SDS011;60699;48.946;8.412;2023-03-20T15:08:51;3.85;;;3.42;;
8349;SDS011;60699;48.946;8.412;2023-03-20T15:11:19;5.60;;;2.92;;
8349;SDS011;60699;48.946;8.412;2023-03-20T15:13:46;3.45;;;2.88;;
8349;SDS011;60699;48.946;8.412;2023-03-20T15:16:14;2.88;;;2.58;;
8349;SDS011;60699;48.946;8.412;2023-03-20T15:18:42;3.50;;;2.63;;
8349;SDS011;60699;48.946;8.412;2023-03-20T15:21:14;3.15;;;2.85;;
8349;SDS011;60699;48.946;8.412;2023-03-20T15:23:42;3.47;;;2.65;;